Harborcreek, Pennsylvania
Current Conditions -  °F | °C
As of 9:51 PM on Saturday 20 Dec 2014 (Local Time) from KERI Reporting Station
Overcast Overcast  
Wind Chill: 25°   Ceiling: 2000
Heat Index: 30°   Visibility: 10mi
Dew Point: 21°   Wind: 5mph
Humidity: 69%   Direction: 160°SSE
Pressure: 30.29"   Gusts: NA
Location:  42.17°N, 79.95°W
Report Text: KERI 210251Z 16004KT 10SM OVC020 M01/M06 A3029 RMK AO2 SLP265 T10111061 53002
Loading
Personal Weather Stations






























Interactive Weather Map New forecast layout! Learn more

10-Day Weather Forecast

Advertisements
Track Severe Weather on mobile